Time;durP1;ratioP1;P1;durP2;ratioP2;P2;SDS_P1;SDS_P2;PMS_P1;PMS_P2;Temp;Humidity;BMP_temperature;BMP_pressure;BME280_temperature;BME280_humidity;BME280_pressure;Samples;Min_cycle;Max_cycle;Signal;HPM_P1;HPM_P2
2022/03/09 00:01:28;;;;;;;13.55;5.85;;;6.30;37.90;;;;;;5022740;28;20053;-45
2022/03/09 00:03:56;;;;;;;10.32;5.80;;;6.30;37.90;;;;;;5018658;28;20057;-44
2022/03/09 00:06:23;;;;;;;11.43;6.40;;;6.30;37.90;;;;;;5022475;28;20490;-43
2022/03/09 00:08:52;;;;;;;10.48;6.05;;;6.30;37.90;;;;;;5022543;28;20441;-42
2022/03/09 00:11:20;;;;;;;10.63;5.10;;;6.30;37.90;;;;;;5022087;28;20056;-43
2022/03/09 00:13:48;;;;;;;14.38;6.43;;;6.30;37.90;;;;;;5018608;28;20480;-45
2022/03/09 00:16:15;;;;;;;13.93;5.95;;;6.20;37.90;;;;;;5022445;28;20053;-42
2022/03/09 00:18:43;;;;;;;10.50;5.50;;;6.30;38.40;;;;;;5021220;28;20064;-42
2022/03/09 00:21:11;;;;;;;12.55;6.32;;;6.20;37.90;;;;;;5021851;28;20076;-42
2022/03/09 00:23:38;;;;;;;12.38;5.28;;;6.20;37.90;;;;;;5019585;28;20050;-43
2022/03/09 00:26:07;;;;;;;9.77;6.15;;;6.30;37.90;;;;;;5021970;28;20049;-42
2022/03/09 00:28:35;;;;;;;9.38;5.25;;;6.20;37.90;;;;;;5021630;28;20065;-42
2022/03/09 00:31:02;;;;;;;15.95;6.32;;;6.20;37.90;;;;;;5021077;28;20065;-43
2022/03/09 00:33:30;;;;;;;21.02;6.10;;;6.20;37.90;;;;;;5020563;28;20053;-43
2022/03/09 00:35:57;;;;;;;10.02;5.82;;;6.20;37.90;;;;;;5020993;28;20045;-43
2022/03/09 00:38:25;;;;;;;13.10;5.50;;;6.20;37.90;;;;;;5022225;28;20069;-42
2022/03/09 00:40:53;;;;;;;14.85;5.15;;;6.20;37.90;;;;;;5022576;28;20049;-42
2022/03/09 00:43:22;;;;;;;10.50;5.28;;;6.20;38.20;;;;;;5020939;28;20053;-42
2022/03/09 00:45:49;;;;;;;11.75;6.25;;;6.20;37.90;;;;;;5021023;28;20409;-42
2022/03/09 00:48:17;;;;;;;9.82;5.65;;;6.20;37.90;;;;;;5021647;28;20057;-43
2022/03/09 00:50:44;;;;;;;11.27;5.80;;;6.20;37.90;;;;;;5020738;28;20053;-42
2022/03/09 00:53:13;;;;;;;9.13;5.18;;;6.20;37.80;;;;;;5021396;28;20783;-42
2022/03/09 00:55:41;;;;;;;8.25;4.88;;;6.20;37.80;;;;;;5021623;28;20064;-42
2022/03/09 00:58:08;;;;;;;9.05;5.47;;;6.20;37.80;;;;;;5021194;28;20064;-43
2022/03/09 01:00:37;;;;;;;12.68;6.28;;;6.20;37.80;;;;;;5021412;28;20107;-42
2022/03/09 01:03:04;;;;;;;16.52;6.13;;;6.20;37.80;;;;;;5024527;28;20489;-42
2022/03/09 01:05:32;;;;;;;11.98;5.60;;;6.20;37.90;;;;;;5019599;28;20049;-43
2022/03/09 01:08:00;;;;;;;14.52;5.63;;;6.20;37.80;;;;;;5024923;28;20053;-42
2022/03/09 01:10:29;;;;;;;12.07;5.35;;;6.20;37.80;;;;;;5025885;28;20513;-43
2022/03/09 01:12:56;;;;;;;11.48;6.05;;;6.20;37.90;;;;;;5025188;28;20064;-42
2022/03/09 01:15:24;;;;;;;9.75;5.57;;;6.20;37.80;;;;;;5022958;28;20497;-43
2022/03/09 01:17:53;;;;;;;9.57;5.00;;;6.20;37.70;;;;;;5026108;28;20053;-42
2022/03/09 01:20:20;;;;;;;14.20;6.25;;;6.20;37.70;;;;;;5023179;28;20061;-42
2022/03/09 01:22:48;;;;;;;14.27;6.15;;;6.20;37.70;;;;;;5023186;28;20505;-44
2022/03/09 01:25:15;;;;;;;11.55;5.68;;;6.20;37.70;;;;;;5022984;28;20049;-44
2022/03/09 01:27:43;;;;;;;11.32;6.47;;;6.10;37.60;;;;;;5025487;28;20064;-43
2022/03/09 01:30:11;;;;;;;9.35;4.72;;;6.10;37.60;;;;;;5025235;28;20079;-43
2022/03/09 01:32:39;;;;;;;11.07;5.60;;;6.10;37.70;;;;;;5025057;28;20053;-43
2022/03/09 01:35:08;;;;;;;11.07;5.88;;;6.10;37.70;;;;;;5023032;28;20513;-42
2022/03/09 01:37:36;;;;;;;11.85;6.00;;;6.10;37.70;;;;;;5025197;28;20053;-43
2022/03/09 01:40:04;;;;;;;10.25;5.30;;;6.10;37.70;;;;;;5025576;28;20497;-42
2022/03/09 01:42:32;;;;;;;11.63;5.40;;;6.10;37.70;;;;;;5022540;28;20432;-43
2022/03/09 01:45:01;;;;;;;19.38;6.03;;;6.10;37.70;;;;;;5023956;28;20065;-43
2022/03/09 01:47:29;;;;;;;11.35;5.88;;;6.00;37.70;;;;;;5025229;28;20053;-43
2022/03/09 01:49:56;;;;;;;9.75;5.43;;;6.10;37.70;;;;;;5024074;28;20060;-43
2022/03/09 01:52:26;;;;;;;17.30;5.88;;;6.00;37.70;;;;;;5024381;28;20515;-43
2022/03/09 01:54:54;;;;;;;10.85;5.50;;;6.00;37.70;;;;;;5021093;28;20421;-42
2022/03/09 01:57:22;;;;;;;12.77;5.82;;;6.00;37.70;;;;;;5024726;28;20060;-42
2022/03/09 01:59:51;;;;;;;12.15;5.68;;;6.00;37.70;;;;;;5024145;28;20053;-44
2022/03/09 02:02:18;;;;;;;10.13;5.65;;;6.00;37.70;;;;;;5023381;28;20053;-43
2022/03/09 02:04:47;;;;;;;9.82;5.03;;;6.00;37.80;;;;;;5019057;28;20060;-42
2022/03/09 02:07:15;;;;;;;9.07;5.25;;;6.00;37.80;;;;;;5022317;28;20505;-44
2022/03/09 02:09:44;;;;;;;10.82;5.90;;;6.00;37.80;;;;;;5025002;28;20060;-42
2022/03/09 02:12:13;;;;;;;13.32;5.63;;;5.90;37.70;;;;;;5023387;28;20083;-43
2022/03/09 02:14:43;;;;;;;10.35;5.97;;;5.90;37.80;;;;;;5023921;28;20057;-42
2022/03/09 02:17:13;;;;;;;9.63;5.15;;;5.90;37.90;;;;;;5024343;28;20050;-43
2022/03/09 02:19:42;;;;;;;11.00;4.97;;;5.90;37.90;;;;;;5021781;28;20060;-42
2022/03/09 02:22:20;;;;;;;9.15;4.90;;;5.80;37.90;;;;;;5023061;28;20080;-42
2022/03/09 02:24:48;;;;;;;12.90;5.88;;;5.90;37.90;;;;;;5022365;28;20045;-43
2022/03/09 02:27:16;;;;;;;7.82;5.10;;;5.80;37.90;;;;;;5024174;28;20057;-42
2022/03/09 02:29:43;;;;;;;9.10;4.90;;;5.80;37.90;;;;;;5024443;28;20064;-43
2022/03/09 02:32:11;;;;;;;12.10;5.82;;;5.80;37.90;;;;;;5025149;28;20416;-42
2022/03/09 02:34:39;;;;;;;13.57;6.00;;;5.80;38.00;;;;;;5018666;28;20060;-42
2022/03/09 02:37:06;;;;;;;13.05;5.57;;;5.80;37.90;;;;;;5022473;28;20409;-42
2022/03/09 02:39:35;;;;;;;11.50;5.88;;;5.70;37.90;;;;;;5020353;28;20053;-42
2022/03/09 02:42:04;;;;;;;13.55;6.10;;;5.70;38.00;;;;;;5023873;28;20053;-42
2022/03/09 02:44:32;;;;;;;12.30;5.10;;;5.70;38.00;;;;;;5002991;28;20053;-42
2022/03/09 02:46:59;;;;;;;11.85;5.72;;;5.70;38.00;;;;;;5005548;28;20049;-42
2022/03/09 02:49:27;;;;;;;9.00;5.43;;;5.70;38.60;;;;;;5001012;28;20410;-43
2022/03/09 02:51:55;;;;;;;12.63;6.15;;;5.70;38.10;;;;;;5004298;28;20049;-42
2022/03/09 02:54:22;;;;;;;15.63;5.53;;;5.70;38.10;;;;;;5003550;28;20054;-42
2022/03/09 02:56:51;;;;;;;10.40;5.63;;;5.70;38.10;;;;;;5004742;28;20053;-42
2022/03/09 02:59:19;;;;;;;14.05;6.10;;;5.70;38.10;;;;;;5002569;28;20446;-42
2022/03/09 03:01:46;;;;;;;10.23;6.03;;;5.70;38.10;;;;;;5003913;28;20062;-42
2022/03/09 03:04:14;;;;;;;12.48;6.13;;;5.70;38.10;;;;;;5000189;28;20053;-42
2022/03/09 03:06:41;;;;;;;11.38;5.90;;;5.70;38.20;;;;;;5003204;28;20486;-42
2022/03/09 03:09:09;;;;;;;13.98;5.80;;;5.70;38.20;;;;;;5003377;28;20064;-42
2022/03/09 03:11:36;;;;;;;12.85;6.03;;;5.70;38.20;;;;;;5000835;28;20049;-42
2022/03/09 03:14:05;;;;;;;10.75;6.13;;;5.70;38.20;;;;;;5002858;28;20056;-43
2022/03/09 03:16:33;;;;;;;9.88;6.00;;;5.60;38.10;;;;;;5003910;28;20517;-42
2022/03/09 03:19:00;;;;;;;17.38;6.40;;;5.60;38.10;;;;;;5001995;28;20072;-44
2022/03/09 03:21:28;;;;;;;15.10;5.53;;;5.70;38.10;;;;;;5004096;28;20497;-42
2022/03/09 03:23:55;;;;;;;11.45;6.35;;;5.60;38.10;;;;;;5000948;28;20060;-46
2022/03/09 03:26:24;;;;;;;13.45;5.82;;;5.60;38.10;;;;;;5004688;28;20046;-43
2022/03/09 03:28:52;;;;;;;10.65;5.65;;;5.60;38.10;;;;;;5003821;28;20053;-42
2022/03/09 03:31:21;;;;;;;17.80;6.53;;;5.60;38.10;;;;;;5003561;28;20072;-42
2022/03/09 03:33:49;;;;;;;16.20;5.75;;;5.60;38.20;;;;;;4998085;28;20058;-41
2022/03/09 03:36:17;;;;;;;14.90;6.00;;;5.60;38.10;;;;;;5002757;28;20057;-42
2022/03/09 03:38:45;;;;;;;14.43;5.93;;;5.60;38.20;;;;;;5003445;28;20060;-43
2022/03/09 03:41:12;;;;;;;14.80;6.38;;;5.60;38.10;;;;;;5003714;28;20080;-42
2022/03/09 03:43:40;;;;;;;12.13;6.25;;;5.50;38.10;;;;;;5012156;28;20061;-42
2022/03/09 03:46:07;;;;;;;11.50;6.18;;;5.50;38.10;;;;;;5022090;28;20060;-42
2022/03/09 03:48:36;;;;;;;11.95;5.75;;;5.50;38.20;;;;;;5017360;28;20741;-42
2022/03/09 03:51:04;;;;;;;10.90;6.07;;;5.50;38.30;;;;;;5019948;28;20046;-42
2022/03/09 03:53:32;;;;;;;12.30;5.97;;;5.50;38.30;;;;;;5021418;28;20840;-42
2022/03/09 03:55:59;;;;;;;12.73;6.22;;;5.50;38.30;;;;;;5021881;28;20057;-42
2022/03/09 03:58:27;;;;;;;11.68;5.75;;;5.40;38.20;;;;;;5021561;28;20049;-42
2022/03/09 04:00:55;;;;;;;10.45;5.80;;;5.40;38.30;;;;;;5019831;28;20061;-42
2022/03/09 04:03:22;;;;;;;8.63;5.15;;;5.40;38.20;;;;;;5020561;28;20061;-43
2022/03/09 04:05:51;;;;;;;7.78;5.15;;;5.40;38.30;;;;;;5021418;28;20053;-42
2022/03/09 04:08:19;;;;;;;8.15;4.60;;;5.40;38.30;;;;;;5021453;28;20059;-42
2022/03/09 04:10:47;;;;;;;12.25;6.18;;;5.40;38.30;;;;;;5020537;28;20053;-44
2022/03/09 04:13:14;;;;;;;9.30;4.90;;;5.40;38.40;;;;;;5022219;28;20409;-42
2022/03/09 04:15:41;;;;;;;12.30;6.63;;;5.30;38.40;;;;;;5018445;28;20049;-42
2022/03/09 04:18:09;;;;;;;10.00;5.43;;;5.30;38.40;;;;;;5019566;28;20052;-42
2022/03/09 04:20:36;;;;;;;10.35;5.85;;;5.30;38.40;;;;;;5019207;28;20057;-42
2022/03/09 04:23:08;;;;;;;12.27;5.65;;;5.30;38.60;;;;;;5019811;28;20390;-42
2022/03/09 04:25:36;;;;;;;13.75;6.18;;;5.20;38.50;;;;;;5020892;28;20073;-42
2022/03/09 04:28:04;;;;;;;10.68;5.65;;;5.20;38.50;;;;;;5021835;28;20053;-42
2022/03/09 04:30:32;;;;;;;13.98;6.75;;;5.20;38.50;;;;;;5020608;28;20060;-42
2022/03/09 04:33:00;;;;;;;10.77;6.38;;;5.20;38.60;;;;;;5022280;28;20049;-42
2022/03/09 04:35:28;;;;;;;15.45;6.63;;;5.20;38.70;;;;;;5018787;28;20050;-42
2022/03/09 04:37:55;;;;;;;13.18;6.13;;;5.10;38.60;;;;;;5020963;28;20049;-42
2022/03/09 04:40:24;;;;;;;17.50;6.05;;;5.10;38.70;;;;;;5021164;28;20091;-42
2022/03/09 04:42:52;;;;;;;10.48;5.88;;;5.10;38.70;;;;;;5021627;28;20065;-42
2022/03/09 04:45:19;;;;;;;12.73;6.32;;;5.10;38.70;;;;;;5022348;28;20068;-42
2022/03/09 04:47:47;;;;;;;15.15;6.50;;;5.00;38.80;;;;;;5022362;28;20045;-43
2022/03/09 04:50:14;;;;;;;11.75;6.38;;;5.00;38.80;;;;;;5020563;28;20544;-42
2022/03/09 04:52:42;;;;;;;14.05;6.07;;;5.00;38.90;;;;;;5022685;28;20072;-44
2022/03/09 04:55:10;;;;;;;13.88;6.18;;;5.00;38.90;;;;;;5023036;28;20058;-42
2022/03/09 04:57:39;;;;;;;16.92;6.60;;;5.00;38.90;;;;;;5022548;28;20509;-43
2022/03/09 05:00:08;;;;;;;15.90;6.45;;;5.00;38.90;;;;;;5022039;28;20053;-42
2022/03/09 05:02:36;;;;;;;15.07;5.70;;;4.90;38.90;;;;;;5022255;28;20508;-42
2022/03/09 05:05:04;;;;;;;17.55;7.20;;;5.00;39.00;;;;;;5021163;28;20049;-42
2022/03/09 05:07:31;;;;;;;12.00;6.40;;;5.00;39.00;;;;;;5021774;28;20397;-44
2022/03/09 05:09:59;;;;;;;13.70;5.80;;;5.00;38.90;;;;;;5021411;28;20058;-42
2022/03/09 05:12:27;;;;;;;12.82;6.10;;;5.00;38.90;;;;;;5021914;28;20413;-42
2022/03/09 05:14:56;;;;;;;15.00;6.30;;;5.00;39.00;;;;;;5021889;28;20053;-42
2022/03/09 05:17:24;;;;;;;8.48;5.53;;;5.00;39.00;;;;;;5021019;28;20056;-44
2022/03/09 05:19:51;;;;;;;28.65;11.50;;;4.90;39.00;;;;;;5018586;28;20057;-42
2022/03/09 05:22:19;;;;;;;31.05;14.15;;;4.90;39.00;;;;;;5020510;28;20052;-42
2022/03/09 05:24:46;;;;;;;13.27;6.90;;;4.90;39.00;;;;;;5018299;28;20056;-42
2022/03/09 05:27:15;;;;;;;16.83;7.30;;;4.90;39.00;;;;;;5020366;28;20064;-42
2022/03/09 05:29:42;;;;;;;13.20;6.93;;;4.90;39.10;;;;;;5021450;28;20454;-43
2022/03/09 05:32:11;;;;;;;10.45;6.10;;;4.90;39.10;;;;;;5019554;28;20057;-43
2022/03/09 05:34:39;;;;;;;13.68;6.40;;;4.90;39.00;;;;;;5018119;28;20049;-42
2022/03/09 05:37:06;;;;;;;9.60;5.72;;;4.90;39.10;;;;;;5021802;28;20525;-42
2022/03/09 05:39:34;;;;;;;11.98;5.72;;;4.90;39.10;;;;;;5020474;28;20076;-43
2022/03/09 05:42:01;;;;;;;16.45;7.13;;;4.90;39.20;;;;;;5020660;28;20061;-43
2022/03/09 05:44:29;;;;;;;11.95;6.00;;;4.90;39.20;;;;;;5016506;28;20057;-42
2022/03/09 05:46:57;;;;;;;15.07;6.22;;;4.90;39.20;;;;;;5018372;28;20060;-42
2022/03/09 05:49:26;;;;;;;12.30;6.38;;;4.90;39.30;;;;;;5022373;28;20057;-42
2022/03/09 05:51:53;;;;;;;12.38;5.93;;;4.90;39.30;;;;;;5024471;28;20497;-42
2022/03/09 05:54:21;;;;;;;13.38;6.32;;;4.90;39.20;;;;;;5021782;28;20057;-42
2022/03/09 05:56:49;;;;;;;13.07;6.10;;;4.90;39.20;;;;;;5024922;28;20057;-44
2022/03/09 05:59:17;;;;;;;47.97;17.38;;;4.90;39.20;;;;;;5019634;28;20060;-43
2022/03/09 06:01:45;;;;;;;18.60;8.43;;;4.90;39.30;;;;;;5016943;28;20053;-42
2022/03/09 06:04:13;;;;;;;14.00;6.68;;;4.90;39.30;;;;;;5019968;28;20053;-43
2022/03/09 06:06:42;;;;;;;12.50;6.32;;;4.90;39.30;;;;;;5023312;28;20071;-43
2022/03/09 06:09:09;;;;;;;16.65;5.93;;;4.90;39.30;;;;;;5022014;28;20060;-42
2022/03/09 06:11:37;;;;;;;16.92;5.88;;;4.90;39.30;;;;;;5024340;28;20521;-43
2022/03/09 06:14:05;;;;;;;17.40;6.57;;;4.90;39.30;;;;;;5021873;28;20076;-42
2022/03/09 06:16:32;;;;;;;10.93;5.57;;;4.90;39.40;;;;;;5023080;28;20057;-45
2022/03/09 06:19:00;;;;;;;13.90;6.90;;;4.90;39.40;;;;;;5020402;28;20540;-43
2022/03/09 06:21:27;;;;;;;12.23;6.82;;;4.90;39.40;;;;;;5021742;28;20053;-43
2022/03/09 06:23:56;;;;;;;13.57;7.07;;;4.90;39.50;;;;;;5021883;28;20050;-43
2022/03/09 06:26:24;;;;;;;14.25;6.30;;;4.80;39.60;;;;;;5023963;28;20548;-44
2022/03/09 06:28:51;;;;;;;19.25;7.22;;;4.80;39.60;;;;;;5021843;28;20053;-43
2022/03/09 06:31:19;;;;;;;12.38;6.57;;;4.80;39.70;;;;;;5022697;28;20050;-44
2022/03/09 06:33:46;;;;;;;14.52;6.97;;;4.80;39.80;;;;;;5021765;28;20061;-43
2022/03/09 06:36:14;;;;;;;16.95;6.88;;;4.80;39.80;;;;;;5022217;28;20498;-43
2022/03/09 06:38:42;;;;;;;12.85;6.32;;;4.80;39.70;;;;;;5023363;28;20050;-42
2022/03/09 06:41:11;;;;;;;16.88;6.43;;;4.80;39.70;;;;;;5024565;28;20064;-42
2022/03/09 06:43:39;;;;;;;12.45;5.65;;;4.80;39.70;;;;;;5022662;28;20053;-42
2022/03/09 06:46:06;;;;;;;15.85;6.88;;;4.80;39.80;;;;;;5022722;28;20060;-42
2022/03/09 06:48:34;;;;;;;11.70;6.10;;;4.90;39.80;;;;;;5021875;28;20062;-42
2022/03/09 06:51:01;;;;;;;12.52;6.32;;;4.90;39.90;;;;;;5020578;28;20049;-44
2022/03/09 06:53:29;;;;;;;14.93;6.97;;;4.90;39.80;;;;;;5022800;28;20049;-43
2022/03/09 06:55:56;;;;;;;16.25;6.75;;;5.00;39.90;;;;;;5021310;28;20382;-42
2022/03/09 06:58:26;;;;;;;10.95;5.68;;;5.00;39.80;;;;;;5022193;28;20052;-42
2022/03/09 07:00:55;;;;;;;17.13;6.10;;;5.10;39.80;;;;;;5021676;28;20076;-42
2022/03/09 07:03:23;;;;;;;16.70;6.32;;;5.10;39.80;;;;;;5021611;28;20417;-43
2022/03/09 07:05:52;;;;;;;14.20;6.53;;;5.20;39.80;;;;;;5020869;28;20057;-48
2022/03/09 07:08:20;;;;;;;18.90;6.18;;;5.20;39.80;;;;;;5023136;28;20060;-42
2022/03/09 07:10:47;;;;;;;17.42;6.88;;;5.20;39.70;;;;;;5022537;28;20053;-42
2022/03/09 07:13:15;;;;;;;13.00;6.13;;;5.30;39.70;;;;;;5023147;28;20489;-42
2022/03/09 07:15:44;;;;;;;17.20;5.97;;;5.40;39.70;;;;;;5021524;28;20057;-42
2022/03/09 07:18:12;;;;;;;12.88;5.90;;;5.40;39.60;;;;;;5021174;28;20544;-43
2022/03/09 07:20:40;;;;;;;14.88;6.20;;;5.50;39.70;;;;;;5019055;28;20406;-42
2022/03/09 07:23:08;;;;;;;24.75;7.45;;;5.50;39.60;;;;;;5019983;28;20041;-42
2022/03/09 07:25:35;;;;;;;12.60;6.20;;;5.60;39.80;;;;;;5021463;28;20053;-42
2022/03/09 07:28:03;;;;;;;11.32;6.65;;;5.70;39.80;;;;;;5022858;28;20064;-42
2022/03/09 07:30:31;;;;;;;15.23;6.30;;;5.70;39.60;;;;;;5022696;28;20087;-42
2022/03/09 07:33:00;;;;;;;12.10;5.95;;;5.80;39.50;;;;;;5022695;28;20065;-42
2022/03/09 07:35:28;;;;;;;12.93;6.70;;;5.80;39.50;;;;;;5020484;28;20409;-45
2022/03/09 07:37:55;;;;;;;15.38;6.70;;;5.90;39.40;;;;;;5021679;28;20053;-42
2022/03/09 07:40:23;;;;;;;13.35;6.72;;;5.90;39.30;;;;;;5019438;28;20053;-44
2022/03/09 07:42:50;;;;;;;11.85;6.05;;;6.00;39.40;;;;;;5019214;28;20111;-44
2022/03/09 07:45:18;;;;;;;12.43;6.70;;;6.10;39.30;;;;;;5019836;28;20528;-43
2022/03/09 07:47:46;;;;;;;13.90;7.05;;;6.10;39.30;;;;;;5020079;28;20464;-42
2022/03/09 07:50:15;;;;;;;13.18;6.47;;;6.20;39.20;;;;;;5019806;28;20425;-42
2022/03/09 07:52:42;;;;;;;13.43;6.32;;;6.20;39.20;;;;;;5021609;28;20056;-42
2022/03/09 07:55:11;;;;;;;13.40;6.30;;;6.30;39.20;;;;;;5020823;28;20056;-43
2022/03/09 07:57:38;;;;;;;12.75;6.85;;;6.30;39.20;;;;;;5021318;28;20076;-42
2022/03/09 08:00:07;;;;;;;10.40;5.85;;;6.40;39.30;;;;;;5016145;28;20056;-44
2022/03/09 08:02:35;;;;;;;15.13;6.95;;;6.40;39.80;;;;;;5020771;28;20053;-44
2022/03/09 08:05:03;;;;;;;11.07;5.93;;;6.50;39.30;;;;;;5018784;28;20052;-44
2022/03/09 08:07:32;;;;;;;14.48;6.85;;;6.50;39.70;;;;;;5021549;28;20050;-42
2022/03/09 08:10:00;;;;;;;12.15;6.60;;;6.60;39.20;;;;;;5020761;28;20060;-42
2022/03/09 08:12:28;;;;;;;45.15;17.58;;;6.70;39.20;;;;;;5020950;28;20056;-42
2022/03/09 08:14:55;;;;;;;17.13;7.93;;;6.70;39.20;;;;;;5017425;28;20068;-42
2022/03/09 08:17:23;;;;;;;14.88;7.07;;;6.80;39.20;;;;;;5020555;28;20395;-43
2022/03/09 08:19:51;;;;;;;11.40;7.07;;;6.90;39.10;;;;;;5017365;28;20045;-43
2022/03/09 08:22:18;;;;;;;12.15;6.95;;;6.90;39.00;;;;;;5020924;28;20049;-42
2022/03/09 08:24:47;;;;;;;13.43;6.93;;;7.00;39.00;;;;;;5016508;28;20053;-42
2022/03/09 08:27:15;;;;;;;12.55;6.22;;;7.00;39.00;;;;;;5021284;28;20673;-45
2022/03/09 08:29:42;;;;;;;13.60;6.93;;;7.10;39.00;;;;;;5020913;28;20057;-43
2022/03/09 08:32:10;;;;;;;13.77;6.47;;;7.10;38.90;;;;;;5023116;28;20057;-43
2022/03/09 08:34:38;;;;;;;13.75;6.80;;;7.20;39.10;;;;;;5019361;28;20418;-42
2022/03/09 08:37:05;;;;;;;11.82;6.60;;;7.20;38.90;;;;;;5022159;28;20061;-43
2022/03/09 08:39:33;;;;;;;15.30;7.30;;;7.30;38.80;;;;;;5021720;28;20060;-43
2022/03/09 08:42:02;;;;;;;12.98;6.72;;;7.40;38.80;;;;;;5022125;28;20049;-43
2022/03/09 08:44:29;;;;;;;41.70;16.50;;;7.40;38.50;;;;;;5021685;28;20053;-44
2022/03/09 08:46:57;;;;;;;15.55;7.95;;;7.50;38.60;;;;;;5021608;28;20512;-43
2022/03/09 08:49:24;;;;;;;13.23;7.38;;;7.50;38.30;;;;;;5021140;28;20390;-43
2022/03/09 08:51:52;;;;;;;11.80;6.72;;;7.60;38.00;;;;;;5022815;28;20056;-43
2022/03/09 08:54:19;;;;;;;13.93;7.57;;;7.70;38.00;;;;;;5021247;28;20064;-43
2022/03/09 08:56:47;;;;;;;16.92;7.75;;;7.80;38.00;;;;;;5017833;28;20417;-43
2022/03/09 08:59:16;;;;;;;13.88;6.85;;;7.80;37.90;;;;;;5020891;28;20419;-42
2022/03/09 09:01:43;;;;;;;11.98;6.38;;;7.90;37.80;;;;;;5020229;28;20053;-43
2022/03/09 09:04:11;;;;;;;15.70;7.72;;;7.90;37.60;;;;;;5018601;28;20057;-43
2022/03/09 09:06:38;;;;;;;14.23;6.63;;;8.00;37.60;;;;;;5021673;28;20417;-43
2022/03/09 09:09:06;;;;;;;12.85;7.15;;;8.10;37.80;;;;;;5021938;28;20104;-42
2022/03/09 09:11:33;;;;;;;16.08;7.47;;;8.20;37.80;;;;;;5021761;28;20065;-42
2022/03/09 09:14:01;;;;;;;12.88;6.72;;;8.20;37.90;;;;;;5021225;28;20060;-42
2022/03/09 09:16:30;;;;;;;14.77;6.60;;;8.30;37.70;;;;;;5021186;28;20527;-43
2022/03/09 09:18:57;;;;;;;12.73;6.63;;;8.30;37.40;;;;;;5020648;28;20061;-42
2022/03/09 09:21:25;;;;;;;17.88;7.60;;;8.40;37.40;;;;;;5021278;28;20438;-43
2022/03/09 09:23:52;;;;;;;14.38;7.32;;;8.50;37.10;;;;;;5018850;28;20091;-42
2022/03/09 09:26:20;;;;;;;15.10;6.93;;;8.60;37.00;;;;;;5022307;28;20520;-43
2022/03/09 09:28:47;;;;;;;13.05;7.05;;;8.60;37.00;;;;;;5023780;28;20497;-43
2022/03/09 09:31:15;;;;;;;15.38;6.93;;;8.70;37.10;;;;;;5024114;28;20052;-43
2022/03/09 09:33:44;;;;;;;11.35;6.63;;;8.70;36.90;;;;;;5023231;28;20064;-43
2022/03/09 09:36:11;;;;;;;14.43;7.95;;;8.80;36.40;;;;;;5022943;28;20060;-43
2022/03/09 09:38:39;;;;;;;13.00;6.75;;;8.90;36.30;;;;;;5022537;28;20072;-45
2022/03/09 09:41:09;;;;;;;13.15;6.80;;;8.90;36.00;;;;;;5023683;28;20053;-43
2022/03/09 09:43:37;;;;;;;11.75;7.18;;;9.00;35.90;;;;;;5024082;28;20493;-44
2022/03/09 09:46:05;;;;;;;11.75;6.55;;;9.00;35.70;;;;;;5023421;28;20045;-43
2022/03/09 09:48:33;;;;;;;11.77;6.93;;;9.00;36.00;;;;;;5023487;28;20057;-43
2022/03/09 09:51:02;;;;;;;13.80;6.50;;;9.10;35.90;;;;;;5023470;28;20053;-43
2022/03/09 09:53:33;;;;;;;11.85;6.95;;;9.20;35.90;;;;;;5023855;28;20053;-43
2022/03/09 09:56:01;;;;;;;11.23;6.35;;;9.30;35.70;;;;;;5023722;28;20069;-44
2022/03/09 09:58:29;;;;;;;12.70;6.55;;;9.30;35.40;;;;;;5022787;28;20061;-43
2022/03/09 10:00:57;;;;;;;12.13;7.00;;;9.40;35.30;;;;;;5024530;28;20061;-43
2022/03/09 10:03:25;;;;;;;12.38;6.20;;;9.40;35.10;;;;;;5024357;28;20057;-43
2022/03/09 10:05:52;;;;;;;12.65;6.82;;;9.50;35.00;;;;;;5022487;28;20069;-43
2022/03/09 10:08:21;;;;;;;11.27;6.78;;;9.50;34.70;;;;;;5022381;28;20405;-43
2022/03/09 10:10:57;;;;;;;12.60;6.40;;;9.60;34.80;;;;;;5012589;28;20080;-45
2022/03/09 10:13:26;;;;;;;11.25;6.47;;;9.70;34.80;;;;;;5011992;28;20756;-43
2022/03/09 10:16:15;;;;;;;11.85;6.20;;;9.70;34.80;;;;;;5021374;28;20050;-43
2022/03/09 10:18:49;;;;;;;17.67;7.50;;;9.80;34.40;;;;;;5021431;28;20053;-43
2022/03/09 10:21:18;;;;;;;12.15;6.80;;;9.90;34.40;;;;;;5022506;28;20049;-42
2022/03/09 10:23:59;;;;;;;13.63;6.47;;;10.00;34.20;;;;;;5023903;28;20433;-43
2022/03/09 10:26:28;;;;;;;15.55;7.30;;;10.00;33.50;;;;;;5023855;28;20057;-43
2022/03/09 10:29:01;;;;;;;13.25;7.63;;;10.10;33.80;;;;;;5023527;28;20057;-42
2022/03/09 10:31:33;;;;;;;12.48;6.70;;;10.10;33.60;;;;;;5023764;28;20058;-42
2022/03/09 10:34:08;;;;;;;11.60;7.28;;;10.20;33.80;;;;;;5020486;28;20057;-45
2022/03/09 10:36:36;;;;;;;13.10;7.55;;;10.30;33.60;;;;;;5021648;28;20056;-43
2022/03/09 10:39:16;;;;;;;13.23;6.75;;;10.30;33.50;;;;;;5019673;28;20417;-42
2022/03/09 10:41:44;;;;;;;10.15;6.53;;;10.40;33.30;;;;;;5012350;28;20049;-43
2022/03/09 10:44:12;;;;;;;11.30;7.32;;;10.40;33.60;;;;;;5010082;28;20068;-43
2022/03/09 10:46:45;;;;;;;9.73;5.97;;;10.50;33.60;;;;;;5009675;28;20050;-43
2022/03/09 10:49:14;;;;;;;12.20;6.90;;;10.60;33.50;;;;;;5003133;28;20056;-44
2022/03/09 10:51:44;;;;;;;11.45;6.65;;;10.60;33.60;;;;;;5016221;28;20449;-42
2022/03/09 10:54:17;;;;;;;12.60;7.28;;;10.70;33.60;;;;;;5021393;28;20504;-43
2022/03/09 10:56:46;;;;;;;10.05;6.15;;;10.70;32.90;;;;;;5023619;28;20060;-42
2022/03/09 10:59:17;;;;;;;13.35;7.35;;;10.80;32.90;;;;;;5022039;28;20051;-42
2022/03/09 11:02:02;;;;;;;13.23;7.40;;;10.80;32.80;;;;;;5020260;28;20402;-42
2022/03/09 11:04:29;;;;;;;10.23;6.57;;;10.90;32.90;;;;;;5017584;28;20060;-42
2022/03/09 11:06:58;;;;;;;12.10;6.93;;;11.00;32.40;;;;;;5018609;28;20529;-43
2022/03/09 11:09:28;;;;;;;12.05;7.63;;;11.00;32.00;;;;;;5020670;28;20061;-43
2022/03/09 11:11:56;;;;;;;13.45;7.68;;;11.10;31.60;;;;;;5018351;28;20692;-44
2022/03/09 11:14:26;;;;;;;11.70;6.45;;;11.10;31.80;;;;;;5003796;28;20054;-43
2022/03/09 11:16:57;;;;;;;12.45;6.93;;;11.20;31.60;;;;;;5009172;28;20053;-42
2022/03/09 11:19:25;;;;;;;11.95;6.97;;;11.20;31.60;;;;;;5021180;28;20053;-42
2022/03/09 11:21:55;;;;;;;14.93;7.30;;;11.30;31.80;;;;;;5022496;28;20053;-42
2022/03/09 11:24:23;;;;;;;11.18;6.85;;;11.30;31.80;;;;;;5019576;28;20049;-42
2022/03/09 11:26:57;;;;;;;11.05;6.97;;;11.40;31.50;;;;;;5023272;28;20547;-42
2022/03/09 11:29:34;;;;;;;19.00;7.95;;;11.40;31.30;;;;;;5020424;28;20065;-42
2022/03/09 11:32:04;;;;;;;11.80;7.40;;;11.40;30.90;;;;;;5022324;28;20057;-42
2022/03/09 11:34:37;;;;;;;11.20;7.20;;;11.50;31.00;;;;;;5017733;28;20053;-42
2022/03/09 11:37:07;;;;;;;12.98;7.18;;;11.50;31.10;;;;;;5023609;28;20076;-42
2022/03/09 11:39:37;;;;;;;12.40;7.25;;;11.50;31.00;;;;;;5020432;28;20050;-42
2022/03/09 11:42:37;;;;;;;12.68;7.55;;;11.50;30.80;;;;;;5021089;28;20053;-42
2022/03/09 11:45:32;;;;;;;13.75;6.95;;;11.60;30.70;;;;;;5018112;28;20406;-42
2022/03/09 11:48:03;;;;;;;11.15;7.38;;;11.60;31.20;;;;;;5019002;28;20493;-44
2022/03/09 11:50:34;;;;;;;13.35;7.93;;;11.70;31.40;;;;;;5019671;28;20053;-42
2022/03/09 11:53:04;;;;;;;15.48;7.50;;;11.70;31.10;;;;;;5023073;28;20060;-47
2022/03/09 11:55:32;;;;;;;13.80;8.45;;;11.70;30.60;;;;;;5022162;28;20441;-43
2022/03/09 11:58:12;;;;;;;12.65;7.47;;;11.70;30.40;;;;;;5019374;28;20060;-42
2022/03/09 12:00:41;;;;;;;11.98;7.88;;;11.80;30.00;;;;;;5021476;28;20053;-42
2022/03/09 12:03:09;;;;;;;12.50;7.63;;;11.80;29.90;;;;;;5021504;28;20068;-42
2022/03/09 12:05:39;;;;;;;14.48;8.10;;;11.80;30.00;;;;;;5020837;28;20057;-42
2022/03/09 12:08:09;;;;;;;16.38;7.93;;;11.80;29.80;;;;;;5023178;28;20468;-42
2022/03/09 12:10:51;;;;;;;12.27;7.90;;;11.90;29.80;;;;;;5019671;28;20042;-42
2022/03/09 12:13:33;;;;;;;14.63;7.25;;;11.90;29.80;;;;;;5020330;28;20064;-42
2022/03/09 12:16:17;;;;;;;18.13;8.35;;;12.00;30.00;;;;;;5020591;28;20056;-42
2022/03/09 12:18:51;;;;;;;10.93;7.85;;;12.00;30.00;;;;;;5021542;28;20527;-43
2022/03/09 12:21:20;;;;;;;13.68;8.23;;;12.10;30.00;;;;;;5022054;28;20053;-43
2022/03/09 12:24:32;;;;;;;12.98;7.57;;;12.10;30.30;;;;;;5017362;28;20053;-43
2022/03/09 12:27:00;;;;;;;10.85;6.70;;;12.10;29.60;;;;;;5023181;28;20268;-42
2022/03/09 12:29:41;;;;;;;11.57;6.65;;;12.20;29.80;;;;;;5019372;28;20413;-43
2022/03/09 12:32:12;;;;;;;12.93;7.65;;;12.20;29.30;;;;;;5023265;28;20053;-43
2022/03/09 12:34:42;;;;;;;13.75;6.95;;;12.30;29.50;;;;;;5020001;28;20060;-42
2022/03/09 12:37:11;;;;;;;14.00;7.80;;;12.30;29.30;;;;;;5021968;28;20064;-42
2022/03/09 12:39:39;;;;;;;15.30;8.38;;;12.40;29.20;;;;;;5021844;28;20374;-42
2022/03/09 12:42:08;;;;;;;14.95;7.32;;;12.40;29.10;;;;;;5020585;28;20147;-42
2022/03/09 12:44:37;;;;;;;12.95;7.60;;;12.50;29.30;;;;;;5016354;28;20073;-42
2022/03/09 12:47:07;;;;;;;12.15;7.70;;;12.60;29.30;;;;;;5018706;28;20436;-45
2022/03/09 12:49:37;;;;;;;12.55;7.88;;;12.60;29.20;;;;;;5020922;28;20049;-43
2022/03/09 12:52:08;;;;;;;12.38;7.55;;;12.60;29.20;;;;;;5021140;28;20050;-47
2022/03/09 12:54:41;;;;;;;12.38;8.60;;;12.70;29.60;;;;;;5018262;28;20054;-42